Time;durP1;ratioP1;P1;durP2;ratioP2;P2;SDS_P1;SDS_P2;PMS_P1;PMS_P2;Temp;Humidity;BMP_temperature;BMP_pressure;BME280_temperature;BME280_humidity;BME280_pressure;Samples;Min_cycle;Max_cycle;Signal;HPM_P1;HPM_P2
2022/06/22 00:01:55;;;;;;;3.97;2.03;;;;;;;;;;4975775;28;20458;-76
2022/06/22 00:04:27;;;;;;;2.88;1.90;;;;;;;;;;4960070;28;20037;-77
2022/06/22 00:07:05;;;;;;;2.58;1.77;;;;;;;;;;4976336;28;20018;-77
2022/06/22 00:09:34;;;;;;;2.83;1.80;;;;;;;;;;4976282;28;20501;-77
2022/06/22 00:12:00;;;;;;;3.63;1.98;;;;;;;;;;4976679;28;20025;-77
2022/06/22 00:14:41;;;;;;;2.83;1.88;;;;;;;;;;4960332;28;20030;-77
2022/06/22 00:17:16;;;;;;;2.92;1.73;;;;;;;;;;4976153;28;20030;-76
2022/06/22 00:19:42;;;;;;;4.43;1.90;;;;;;;;;;4975923;28;20080;-77
2022/06/22 00:22:22;;;;;;;2.67;1.90;;;;;;;;;;4976062;28;20410;-76
2022/06/22 00:24:59;;;;;;;4.70;1.95;;;;;;;;;;4975564;28;20074;-76
2022/06/22 00:27:36;;;;;;;2.67;1.80;;;;;;;;;;4975540;28;20129;-78
2022/06/22 00:30:20;;;;;;;5.05;1.90;;;;;;;;;;4976208;28;20022;-77
2022/06/22 00:32:54;;;;;;;;;;;;;;;;;;4993583;28;20026;-78
2022/06/22 00:35:47;;;;;;;3.15;1.77;;;;;;;;;;4975721;28;19916;-77
2022/06/22 00:38:36;;;;;;;3.45;1.85;;;;;;;;;;4993364;28;20352;-77
2022/06/22 00:41:04;;;;;;;2.97;1.73;;;;;;;;;;4976338;28;20057;-77
2022/06/22 00:43:32;;;;;;;2.20;1.70;;;;;;;;;;4976020;28;20034;-77
2022/06/22 00:45:58;;;;;;;3.13;2.03;;;;;;;;;;4959508;28;20121;-77
2022/06/22 00:48:32;;;;;;;3.40;2.10;;;;;;;;;;4975784;28;20030;-77
2022/06/22 00:51:06;;;;;;;;;;;;;;;;;;4959953;28;20065;-77
2022/06/22 00:53:36;;;;;;;4.78;2.28;;;;;;;;;;4975837;28;19989;-77
2022/06/22 00:56:09;;;;;;;4.25;2.17;;;;;;;;;;4975613;28;20062;-77
2022/06/22 00:58:41;;;;;;;2.22;1.70;;;;;;;;;;4975512;28;20037;-77
2022/06/22 01:01:22;;;;;;;3.85;2.22;;;;;;;;;;4975774;28;20030;-76
2022/06/22 01:03:50;;;;;;;4.90;2.20;;;;;;;;;;4975309;28;20030;-77
2022/06/22 01:06:36;;;;;;;2.17;1.98;;;;;;;;;;4992978;28;20530;-78
2022/06/22 01:09:10;;;;;;;3.42;1.70;;;;;;;;;;4975027;28;20065;-78
2022/06/22 01:14:30;;;;;;;4.22;2.30;;;;;;;;;;4980377;28;19916;-78
2022/06/22 01:16:57;;;;;;;3.75;2.10;;;;;;;;;;4979597;28;20030;-77
2022/06/22 01:19:58;;;;;;;3.25;2.10;;;;;;;;;;4997162;28;20046;-77
2022/06/22 01:22:44;;;;;;;3.38;1.73;;;;;;;;;;4962887;28;20471;-77
2022/06/22 01:25:27;;;;;;;3.40;1.80;;;;;;;;;;4979044;28;20050;-77
2022/06/22 01:27:53;;;;;;;2.60;1.90;;;;;;;;;;4978915;28;20030;-78
2022/06/22 01:30:23;;;;;;;3.00;2.20;;;;;;;;;;4979023;28;20459;-76
2022/06/22 01:32:49;;;;;;;3.28;2.20;;;;;;;;;;4978853;28;20029;-77
2022/06/22 01:35:20;;;;;;;3.53;2.10;;;;;;;;;;4962861;28;20030;-77
2022/06/22 01:37:46;;;;;;;3.90;2.20;;;;;;;;;;4962863;28;20022;-77
2022/06/22 01:40:22;;;;;;;4.38;2.42;;;;;;;;;;4978941;28;20081;-77
2022/06/22 01:42:56;;;;;;;2.58;1.95;;;;;;;;;;4978906;28;20486;-77
2022/06/22 01:45:38;;;;;;;3.45;2.25;;;;;;;;;;4978740;28;20022;-77
2022/06/22 01:48:10;;;;;;;3.65;2.20;;;;;;;;;;4962626;28;20506;-77
2022/06/22 01:50:40;;;;;;;1.65;1.55;;;;;;;;;;4978844;28;20104;-77
2022/06/22 01:53:24;;;;;;;2.15;1.60;;;;;;;;;;4962649;28;20046;-77
2022/06/22 01:55:52;;;;;;;3.60;1.88;;;;;;;;;;4996383;28;20097;-77
2022/06/22 01:58:18;;;;;;;5.63;2.08;;;;;;;;;;4996270;28;20487;-77
2022/06/22 02:00:46;;;;;;;3.78;2.20;;;;;;;;;;4996095;28;20026;-77
2022/06/22 02:03:32;;;;;;;2.95;1.90;;;;;;;;;;4978640;28;20030;-77
2022/06/22 02:07:44;;;;;;;4.10;2.15;;;;;;;;;;4978471;28;20368;-77
2022/06/22 02:08:50;;;;;;;4.47;2.17;;;;;;;;;;4981274;28;20023;-77
2022/06/22 02:11:19;;;;;;;2.40;1.63;;;;;;;;;;4978525;28;20092;-77
2022/06/22 02:13:58;;;;;;;2.70;1.88;;;;;;;;;;4962175;28;20026;-77
2022/06/22 02:16:33;;;;;;;3.03;1.90;;;;;;;;;;4978601;28;20121;-78
2022/06/22 02:18:58;;;;;;;2.63;2.10;;;;;;;;;;4978614;28;20030;-77
2022/06/22 02:21:39;;;;;;;2.83;1.98;;;;;;;;;;4995886;28;20501;-77
2022/06/22 02:24:08;;;;;;;4.07;2.15;;;;;;;;;;4995841;28;20037;-78
2022/06/22 02:27:06;;;;;;;3.85;2.13;;;;;;;;;;4977286;28;20046;-78
2022/06/22 02:29:42;;;;;;;2.85;1.90;;;;;;;;;;4952515;28;20125;-78
2022/06/22 02:32:16;;;;;;;3.03;1.90;;;;;;;;;;4978344;28;20022;-77
2022/06/22 02:34:45;;;;;;;2.53;1.98;;;;;;;;;;4978313;28;20121;-78
2022/06/22 02:37:10;;;;;;;4.03;1.90;;;;;;;;;;4978644;28;20030;-78
2022/06/22 02:39:42;;;;;;;4.72;2.33;;;;;;;;;;4978191;28;20077;-77
2022/06/22 02:44:51;;;;;;;5.95;2.20;;;;;;;;;;4995385;28;20037;-77
2022/06/22 02:47:26;;;;;;;3.20;2.35;;;;;;;;;;4977896;28;20031;-77
2022/06/22 02:50:12;;;;;;;3.10;2.08;;;;;;;;;;4961732;28;20023;-77
2022/06/22 02:52:43;;;;;;;2.45;1.90;;;;;;;;;;4961341;28;20030;-77
2022/06/22 02:55:14;;;;;;;2.78;2.13;;;;;;;;;;4961876;28;20418;-77
2022/06/22 02:57:47;;;;;;;3.42;2.03;;;;;;;;;;4961567;28;20031;-77
2022/06/22 03:00:38;;;;;;;5.10;2.20;;;;;;;;;;4977488;28;20093;-77
2022/06/22 03:03:11;;;;;;;4.18;1.90;;;;;;;;;;4968558;28;20307;-77
2022/06/22 03:05:38;;;;;;;2.17;1.85;;;;;;;;;;4977709;28;20482;-77
2022/06/22 03:08:05;;;;;;;2.10;1.90;;;;;;;;;;4977298;28;20056;-77
2022/06/22 03:10:43;;;;;;;3.03;1.73;;;;;;;;;;4995464;28;20038;-77
2022/06/22 03:13:11;;;;;;;4.78;2.05;;;;;;;;;;4961157;28;20050;-77
2022/06/22 03:15:37;;;;;;;3.03;2.00;;;;;;;;;;4976998;28;20164;-76
2022/06/22 03:18:04;;;;;;;3.58;2.10;;;;;;;;;;4994912;28;20054;-76
2022/06/22 03:20:35;;;;;;;2.97;2.10;;;;;;;;;;4977154;28;20034;-77
2022/06/22 03:23:33;;;;;;;3.28;1.88;;;;;;;;;;4980226;28;20494;-76
2022/06/22 03:26:10;;;;;;;3.50;2.10;;;;;;;;;;4999475;28;20085;-76
2022/06/22 03:28:39;;;;;;;3.15;1.80;;;;;;;;;;4977569;28;20033;-76
2022/06/22 03:31:11;;;;;;;2.95;2.13;;;;;;;;;;4994782;28;20030;-78
2022/06/22 03:33:39;;;;;;;2.53;2.20;;;;;;;;;;4976984;28;20109;-77
2022/06/22 03:36:13;;;;;;;3.95;2.22;;;;;;;;;;4994550;28;20386;-77
2022/06/22 03:38:46;;;;;;;3.10;1.90;;;;;;;;;;4977074;28;20026;-77
2022/06/22 03:41:17;;;;;;;2.10;1.90;;;;;;;;;;4977107;28;20041;-77
2022/06/22 03:43:48;;;;;;;3.42;1.80;;;;;;;;;;4976699;28;20138;-77
2022/06/22 03:46:16;;;;;;;3.33;2.10;;;;;;;;;;4960699;28;20037;-77
2022/06/22 03:49:04;;;;;;;4.32;2.00;;;;;;;;;;4994200;28;20026;-77
2022/06/22 03:52:31;;;;;;;1.75;1.65;;;;;;;;;;4960376;28;20057;-77
2022/06/22 03:55:11;;;;;;;5.63;2.40;;;;;;;;;;4899625;29;20036;-77
2022/06/22 03:57:39;;;;;;;5.63;2.25;;;;;;;;;;4883442;29;20032;-76
2022/06/22 04:00:07;;;;;;;4.13;2.05;;;;;;;;;;4897397;29;20044;-77
2022/06/22 04:02:33;;;;;;;4.05;2.17;;;;;;;;;;4880152;29;20039;-77
2022/06/22 04:04:58;;;;;;;3.10;2.25;;;;;;;;;;4911933;29;20056;-77
2022/06/22 04:07:26;;;;;;;2.80;2.10;;;;;;;;;;4899513;29;20162;-77
2022/06/22 04:09:53;;;;;;;5.32;1.98;;;;;;;;;;4895798;29;20036;-77
2022/06/22 04:12:24;;;;;;;4.28;2.20;;;;;;;;;;4898657;29;20122;-76
2022/06/22 04:15:26;;;;;;;4.82;2.00;;;;;;;;;;4895840;29;20536;-76
2022/06/22 04:17:56;;;;;;;5.05;2.13;;;;;;;;;;4895879;29;20625;-80
2022/06/22 04:20:50;;;;;;;3.35;2.25;;;;;;;;;;4883179;29;20079;-80
2022/06/22 04:23:23;;;;;;;4.70;2.40;;;;;;;;;;4884438;29;20652;-78
2022/06/22 04:25:49;;;;;;;;;;;;;;;;;;4931380;28;20050;-81
2022/06/22 04:28:15;;;;;;;2.63;1.67;;;;;;;;;;4976325;28;19920;-81
2022/06/22 04:30:45;;;;;;;4.97;1.88;;;;;;;;;;4976445;28;20040;-79
2022/06/22 04:33:20;;;;;;;6.18;2.67;;;;;;;;;;4977034;28;20022;-80
2022/06/22 04:36:11;;;;;;;5.70;2.70;;;;;;;;;;4994283;28;20025;-81
2022/06/22 04:38:45;;;;;;;4.55;2.40;;;;;;;;;;4960790;28;20022;-81
2022/06/22 04:41:11;;;;;;;4.05;2.35;;;;;;;;;;4977557;28;20053;-81
2022/06/22 04:43:36;;;;;;;5.00;3.08;;;;;;;;;;4994289;28;20054;-79
2022/06/22 04:46:02;;;;;;;3.05;2.45;;;;;;;;;;4976858;28;20406;-80
2022/06/22 04:48:36;;;;;;;5.22;2.80;;;;;;;;;;4960625;28;20030;-80
2022/06/22 04:51:04;;;;;;;5.00;2.75;;;;;;;;;;4996383;28;20085;-81
2022/06/22 04:53:33;;;;;;;5.53;2.42;;;;;;;;;;4976814;28;20022;-81
2022/06/22 04:56:02;;;;;;;5.18;2.40;;;;;;;;;;4960817;28;20034;-82
2022/06/22 04:58:41;;;;;;;4.57;2.60;;;;;;;;;;4976693;28;20033;-79
2022/06/22 05:01:07;;;;;;;19.15;5.28;;;;;;;;;;4994513;28;20056;-80
2022/06/22 05:03:33;;;;;;;5.63;3.10;;;;;;;;;;4960878;28;20049;-80
2022/06/22 05:06:05;;;;;;;7.95;2.97;;;;;;;;;;4976627;28;20137;-80
2022/06/22 05:08:36;;;;;;;9.65;3.03;;;;;;;;;;4960373;28;20023;-80
2022/06/22 05:11:11;;;;;;;11.05;3.30;;;;;;;;;;4977092;28;20043;-79
2022/06/22 05:13:42;;;;;;;8.35;2.90;;;;;;;;;;4995145;28;20029;-79
2022/06/22 05:16:14;;;;;;;8.50;2.92;;;;;;;;;;4976988;28;20060;-79
2022/06/22 05:18:42;;;;;;;5.80;2.70;;;;;;;;;;4978105;28;20034;-80
2022/06/22 05:21:39;;;;;;;6.00;2.60;;;;;;;;;;4978833;28;20064;-81
2022/06/22 05:24:13;;;;;;;7.18;2.10;;;;;;;;;;4991590;28;20039;-80
2022/06/22 05:26:39;;;;;;;7.55;2.33;;;;;;;;;;4994310;28;20499;-80
2022/06/22 05:29:12;;;;;;;7.57;1.80;;;;;;;;;;4977878;28;20035;-80
2022/06/22 05:31:46;;;;;;;6.32;2.45;;;;;;;;;;4995153;28;20409;-79
2022/06/22 05:34:22;;;;;;;;;;;;;;;;;;4995731;28;20467;-80
2022/06/22 05:36:53;;;;;;;3.85;2.03;;;;;;;;;;4977885;28;19917;-80
2022/06/22 05:39:18;;;;;;;5.10;1.98;;;;;;;;;;4961567;28;20042;-80
2022/06/22 05:41:46;;;;;;;8.13;2.17;;;;;;;;;;4977751;28;20372;-81
2022/06/22 05:44:14;;;;;;;4.72;2.10;;;;;;;;;;4960977;28;20027;-80
2022/06/22 05:46:42;;;;;;;11.57;2.40;;;;;;;;;;4977158;28;20106;-80
2022/06/22 05:49:15;;;;;;;6.32;2.20;;;;;;;;;;4976827;28;20034;-81
2022/06/22 05:51:48;;;;;;;7.20;2.20;;;;;;;;;;4977356;28;20037;-80
2022/06/22 05:54:28;;;;;;;;;;;;;;;;;;4977221;28;20038;-80
2022/06/22 05:57:03;;;;;;;4.32;1.45;;;;;;;;;;4960825;28;19916;-80
2022/06/22 05:59:37;;;;;;;2.92;1.50;;;;;;;;;;4977603;28;20030;-80
2022/06/22 06:02:21;;;;;;;7.43;2.28;;;;;;;;;;4979798;28;20030;-79
2022/06/22 06:04:57;;;;;;;7.55;1.85;;;;;;;;;;4997784;28;20029;-79
2022/06/22 06:07:37;;;;;;;8.15;2.15;;;;;;;;;;4980340;28;20026;-78
2022/06/22 06:10:05;;;;;;;4.90;1.50;;;;;;;;;;4979956;28;20045;-78
2022/06/22 06:12:37;;;;;;;5.35;1.48;;;;;;;;;;4980181;28;20028;-78
2022/06/22 06:15:04;;;;;;;2.97;1.52;;;;;;;;;;4963601;28;20030;-78
2022/06/22 06:17:37;;;;;;;2.05;1.40;;;;;;;;;;4980192;28;20061;-79
2022/06/22 06:20:05;;;;;;;2.92;1.60;;;;;;;;;;4979889;28;20096;-78
2022/06/22 06:22:31;;;;;;;5.10;2.38;;;;;;;;;;4979867;28;20027;-79
2022/06/22 06:28:15;;;;;;;3.90;1.95;;;;;;;;;;4990282;28;20112;-79
2022/06/22 06:30:50;;;;;;;8.80;2.08;;;;;;;;;;4979438;28;20025;-78
2022/06/22 06:33:36;;;;;;;4.10;1.40;;;;;;;;;;4979331;28;20029;-78
2022/06/22 06:36:16;;;;;;;4.40;1.33;;;;;;;;;;4979373;28;20034;-78
2022/06/22 06:38:51;;;;;;;2.42;1.20;;;;;;;;;;4963173;28;20029;-79
2022/06/22 06:41:30;;;;;;;3.50;1.15;;;;;;;;;;4979642;28;20538;-78
2022/06/22 06:44:18;;;;;;;4.47;1.27;;;;;;;;;;4962592;28;20513;-79
2022/06/22 06:47:05;;;;;;;5.30;1.50;;;;;;;;;;4962828;28;20080;-79
2022/06/22 06:49:49;;;;;;;2.38;1.23;;;;;;;;;;4979927;28;20026;-79
2022/06/22 06:52:22;;;;;;;2.35;1.30;;;;;;;;;;4996110;28;20026;-79
2022/06/22 06:54:56;;;;;;;4.53;1.70;;;;;;;;;;4978630;28;20549;-80
2022/06/22 06:57:22;;;;;;;6.75;2.00;;;;;;;;;;4962305;28;20268;-81
2022/06/22 06:59:54;;;;;;;14.95;3.65;;;;;;;;;;4996076;28;20402;-82
2022/06/22 07:02:19;;;;;;;12.57;2.88;;;;;;;;;;4978531;28;20538;-81
2022/06/22 07:04:45;;;;;;;12.27;3.07;;;;;;;;;;4978969;28;20058;-81
2022/06/22 07:07:48;;;;;;;5.95;2.47;;;;;;;;;;4978896;28;20343;-82
2022/06/22 07:10:24;;;;;;;8.93;2.47;;;;;;;;;;4996259;28;20053;-81
2022/06/22 07:12:56;;;;;;;16.95;2.75;;;;;;;;;;4962172;28;20023;-81
2022/06/22 07:15:24;;;;;;;9.93;2.40;;;;;;;;;;4978557;28;20026;-81
2022/06/22 07:17:52;;;;;;;7.07;1.98;;;;;;;;;;4995795;28;20030;-81
2022/06/22 07:20:30;;;;;;;6.68;2.30;;;;;;;;;;4978808;28;20030;-83
2022/06/22 07:23:06;;;;;;;14.55;2.50;;;;;;;;;;4979965;28;20422;-81
2022/06/22 07:25:40;;;;;;;8.98;2.25;;;;;;;;;;4963551;28;20113;-80
2022/06/22 07:28:28;;;;;;;3.83;1.67;;;;;;;;;;4999875;28;20070;-81
2022/06/22 07:31:00;;;;;;;5.20;1.70;;;;;;;;;;4962745;28;20117;-81
2022/06/22 07:33:40;;;;;;;5.18;1.77;;;;;;;;;;4962164;28;20022;-81
2022/06/22 07:36:14;;;;;;;5.65;2.00;;;;;;;;;;4978506;28;20430;-82
2022/06/22 07:38:43;;;;;;;10.13;1.90;;;;;;;;;;4978214;28;20095;-81
2022/06/22 07:41:19;;;;;;;5.63;2.13;;;;;;;;;;4995718;28;20422;-81
2022/06/22 07:43:51;;;;;;;6.20;1.50;;;;;;;;;;4979583;28;20456;-82
2022/06/22 07:46:40;;;;;;;4.75;1.58;;;;;;;;;;4961916;28;20018;-81
2022/06/22 07:49:11;;;;;;;2.63;1.35;;;;;;;;;;4978218;28;20456;-82
2022/06/22 07:51:48;;;;;;;2.85;1.33;;;;;;;;;;4978727;28;20030;-81
2022/06/22 07:54:29;;;;;;;4.45;1.52;;;;;;;;;;4962163;28;20021;-80
2022/06/22 07:57:03;;;;;;;6.43;1.45;;;;;;;;;;4961934;28;20030;-83
2022/06/22 07:59:54;;;;;;;5.32;1.20;;;;;;;;;;4995332;28;20030;-80
2022/06/22 08:02:33;;;;;;;3.72;1.33;;;;;;;;;;4978324;28;20030;-81
2022/06/22 08:05:02;;;;;;;4.10;1.23;;;;;;;;;;4980573;28;20026;-82
2022/06/22 08:07:50;;;;;;;3.30;1.30;;;;;;;;;;4983352;28;20030;-84
2022/06/22 08:10:31;;;;;;;4.80;1.20;;;;;;;;;;4984797;28;20023;-84
2022/06/22 08:13:01;;;;;;;3.17;1.45;;;;;;;;;;4988023;28;20389;-81
2022/06/22 08:15:28;;;;;;;3.08;1.33;;;;;;;;;;5008013;28;20022;-84
2022/06/22 08:17:55;;;;;;;6.03;1.52;;;;;;;;;;4987533;28;20018;-83
2022/06/22 08:20:24;;;;;;;7.40;1.45;;;;;;;;;;5000308;28;20062;-82
2022/06/22 08:22:50;;;;;;;15.35;1.40;;;;;;;;;;4982766;28;20034;-82
2022/06/22 08:25:18;;;;;;;10.55;1.90;;;;;;;;;;4988842;28;20050;-81
2022/06/22 08:27:44;;;;;;;13.75;1.75;;;;;;;;;;4981408;28;20022;-79
2022/06/22 08:30:11;;;;;;;6.10;1.60;;;;;;;;;;4964709;28;20022;-80
2022/06/22 08:32:45;;;;;;;3.33;1.30;;;;;;;;;;4961297;28;20108;-80
2022/06/22 08:35:22;;;;;;;3.90;1.58;;;;;;;;;;4994770;28;20018;-79
2022/06/22 08:37:53;;;;;;;2.65;1.20;;;;;;;;;;4977388;28;20038;-80
2022/06/22 08:40:35;;;;;;;3.97;1.08;;;;;;;;;;4977909;28;20037;-81
2022/06/22 08:43:41;;;;;;;4.20;1.40;;;;;;;;;;4977665;28;20096;-80
2022/06/22 08:46:10;;;;;;;2.50;1.23;;;;;;;;;;4934105;29;20023;-79
2022/06/22 08:49:23;;;;;;;2.97;1.08;;;;;;;;;;4970959;28;20186;-80
2022/06/22 08:52:06;;;;;;;4.57;1.43;;;;;;;;;;4944754;28;20043;-79
2022/06/22 08:54:34;;;;;;;2.35;1.40;;;;;;;;;;4974501;28;20038;-79
2022/06/22 08:57:38;;;;;;;3.10;1.45;;;;;;;;;;4974634;28;20027;-79
2022/06/22 09:00:23;;;;;;;3.05;1.05;;;;;;;;;;4958095;28;20506;-79
2022/06/22 09:03:13;;;;;;;4.57;1.10;;;;;;;;;;4957674;28;20059;-79
2022/06/22 09:06:26;;;;;;;1.58;1.02;;;;;;;;;;4974932;28;20113;-79
2022/06/22 09:09:05;;;;;;;2.33;1.05;;;;;;;;;;4956522;28;20058;-80
2022/06/22 09:11:42;;;;;;;3.90;1.10;;;;;;;;;;4957686;28;20038;-79
2022/06/22 09:14:32;;;;;;;2.50;1.08;;;;;;;;;;4957004;28;20061;-79
2022/06/22 09:17:22;;;;;;;1.40;1.10;;;;;;;;;;5001748;28;20030;-81
2022/06/22 09:19:58;;;;;;;2.90;1.10;;;;;;;;;;5006266;28;20030;-82
2022/06/22 09:22:30;;;;;;;2.95;1.30;;;;;;;;;;4976866;28;20030;-81
2022/06/22 09:25:05;;;;;;;3.00;1.50;;;;;;;;;;4982077;28;20034;-81
2022/06/22 09:27:59;;;;;;;6.72;1.50;;;;;;;;;;5001701;28;20034;-82
2022/06/22 09:30:31;;;;;;;3.03;1.20;;;;;;;;;;4966121;28;20117;-81
2022/06/22 09:33:15;;;;;;;2.33;1.50;;;;;;;;;;4998585;28;20105;-81
2022/06/22 09:36:11;;;;;;;3.00;1.30;;;;;;;;;;4987213;28;20035;-81
2022/06/22 09:39:13;;;;;;;3.10;1.40;;;;;;;;;;4956384;28;20040;-81
2022/06/22 09:41:55;;;;;;;2.35;1.17;;;;;;;;;;4998956;28;20062;-81
2022/06/22 09:44:45;;;;;;;3.47;1.33;;;;;;;;;;4981148;28;20030;-80
2022/06/22 09:47:22;;;;;;;3.83;1.23;;;;;;;;;;4996798;28;20028;-80
2022/06/22 09:50:06;;;;;;;5.25;1.40;;;;;;;;;;4979840;28;20037;-80
2022/06/22 09:52:36;;;;;;;2.90;1.58;;;;;;;;;;4979488;28;20026;-79
2022/06/22 09:58:45;;;;;;;14.43;3.88;;;;;;;;;;4918507;29;20509;-78
2022/06/22 10:01:35;;;;;;;13.07;3.92;;;;;;;;;;4976693;28;20049;-78
2022/06/22 10:04:23;;;;;;;11.75;4.05;;;;;;;;;;4996744;28;20041;-78
2022/06/22 10:07:01;;;;;;;12.65;3.70;;;;;;;;;;4979815;28;20019;-78
2022/06/22 10:09:30;;;;;;;11.77;3.80;;;;;;;;;;4979673;28;20026;-78
2022/06/22 10:12:10;;;;;;;9.85;3.25;;;;;;;;;;4979851;28;20186;-78
2022/06/22 10:15:13;;;;;;;11.27;3.30;;;;;;;;;;4979582;28;20026;-78
2022/06/22 10:17:59;;;;;;;4.75;2.30;;;;;;;;;;4997403;28;20057;-78
2022/06/22 10:20:45;;;;;;;8.77;2.75;;;;;;;;;;4980390;28;20026;-79
2022/06/22 10:23:20;;;;;;;11.50;2.80;;;;;;;;;;4981407;28;20475;-80
2022/06/22 10:25:59;;;;;;;5.03;2.33;;;;;;;;;;4979722;28;20506;-80
2022/06/22 10:28:27;;;;;;;4.82;2.30;;;;;;;;;;4979550;28;20026;-80
2022/06/22 10:31:06;;;;;;;5.60;2.33;;;;;;;;;;4996919;28;20029;-79
2022/06/22 10:33:56;;;;;;;5.55;2.30;;;;;;;;;;4979737;28;20034;-79
2022/06/22 10:36:24;;;;;;;7.32;2.00;;;;;;;;;;4996719;28;20041;-79
2022/06/22 10:39:12;;;;;;;9.18;2.60;;;;;;;;;;4996835;28;20101;-80
2022/06/22 10:45:10;;;;;;;3.97;1.90;;;;;;;;;;4996902;28;20097;-79
2022/06/22 10:48:13;;;;;;;13.05;2.13;;;;;;;;;;4996024;28;20026;-79
2022/06/22 10:50:57;;;;;;;3.22;1.95;;;;;;;;;;4996617;28;20033;-79
2022/06/22 10:54:00;;;;;;;6.75;2.10;;;;;;;;;;4996388;28;20430;-80
2022/06/22 10:56:53;;;;;;;7.63;2.30;;;;;;;;;;4996871;28;20046;-80
2022/06/22 10:59:51;;;;;;;7.67;2.30;;;;;;;;;;4996388;28;20065;-81
2022/06/22 11:02:44;;;;;;;5.50;2.67;;;;;;;;;;4956975;28;20030;-81
2022/06/22 11:05:31;;;;;;;5.53;2.75;;;;;;;;;;4996000;28;20471;-80
2022/06/22 11:08:24;;;;;;;6.05;2.50;;;;;;;;;;4996167;28;20197;-79
2022/06/22 11:10:57;;;;;;;9.02;2.40;;;;;;;;;;4996316;28;20104;-81
2022/06/22 11:13:47;;;;;;;7.35;2.55;;;;;;;;;;4995793;28;20026;-79
2022/06/22 11:16:23;;;;;;;8.32;2.08;;;;;;;;;;4994325;28;20030;-78
2022/06/22 11:19:16;;;;;;;4.40;2.20;;;;;;;;;;4978167;28;20036;-79
2022/06/22 11:21:51;;;;;;;4.20;2.15;;;;;;;;;;4978331;28;20157;-79
2022/06/22 11:24:36;;;;;;;4.65;1.80;;;;;;;;;;4978223;28;20104;-79
2022/06/22 11:33:31;;;;;;;3.72;1.90;;;;;;;;;;4981017;28;20077;-77
2022/06/22 11:36:21;;;;;;;4.15;1.60;;;;;;;;;;4978139;28;20045;-79
2022/06/22 11:39:11;;;;;;;4.60;2.00;;;;;;;;;;4995676;28;20019;-78
2022/06/22 11:41:46;;;;;;;3.95;1.52;;;;;;;;;;4961564;28;20039;-79
2022/06/22 11:44:32;;;;;;;1.75;1.40;;;;;;;;;;4995400;28;20027;-79
2022/06/22 11:47:04;;;;;;;2.10;1.50;;;;;;;;;;4995115;28;20026;-79
2022/06/22 11:49:32;;;;;;;2.08;1.30;;;;;;;;;;4993928;28;20022;-80
2022/06/22 11:52:32;;;;;;;2.47;1.42;;;;;;;;;;4995097;28;20101;-79
2022/06/22 11:55:38;;;;;;;2.17;1.48;;;;;;;;;;4977423;28;20081;-79
2022/06/22 11:58:11;;;;;;;2.22;1.30;;;;;;;;;;4963951;28;20119;-79
2022/06/22 12:00:45;;;;;;;3.90;1.40;;;;;;;;;;4977462;28;20026;-79
2022/06/22 12:03:24;;;;;;;6.35;1.60;;;;;;;;;;4997286;28;20491;-80
2022/06/22 12:06:25;;;;;;;3.97;1.52;;;;;;;;;;4983779;28;20030;-80
2022/06/22 12:09:32;;;;;;;4.90;1.60;;;;;;;;;;4980463;28;20026;-79
2022/06/22 12:12:46;;;;;;;5.60;1.50;;;;;;;;;;4983235;28;20046;-79
2022/06/22 12:15:20;;;;;;;7.45;1.92;;;;;;;;;;4896865;29;20036;-80
2022/06/22 12:18:06;;;;;;;11.55;4.05;;;;;;;;;;4881146;29;20073;-78
2022/06/22 12:20:45;;;;;;;10.82;4.18;;;;;;;;;;4967478;28;20042;-78
2022/06/22 12:23:57;;;;;;;10.50;4.03;;;;;;;;;;4994386;28;20027;-78
2022/06/22 12:26:51;;;;;;;9.55;3.33;;;;;;;;;;4896595;29;20059;-78
2022/06/22 12:29:40;;;;;;;7.68;2.60;;;;;;;;;;4896654;29;20028;-78
2022/06/22 12:32:16;;;;;;;5.82;2.33;;;;;;;;;;4881306;29;20044;-78
2022/06/22 12:34:48;;;;;;;5.28;1.80;;;;;;;;;;4881513;29;20408;-78
2022/06/22 12:37:21;;;;;;;4.53;2.25;;;;;;;;;;4896462;29;20058;-78
2022/06/22 12:39:57;;;;;;;5.43;1.95;;;;;;;;;;4880880;29;20067;-78
2022/06/22 12:42:58;;;;;;;3.95;1.90;;;;;;;;;;4880699;29;20047;-78
2022/06/22 12:45:41;;;;;;;2.83;1.90;;;;;;;;;;4822886;29;20034;-78
2022/06/22 12:48:26;;;;;;;4.00;1.90;;;;;;;;;;4823489;29;20099;-78
2022/06/22 12:50:52;;;;;;;5.68;1.80;;;;;;;;;;4822765;29;20038;-78
2022/06/22 12:53:31;;;;;;;5.35;1.95;;;;;;;;;;4822792;29;20034;-79
2022/06/22 12:56:29;;;;;;;2.47;1.50;;;;;;;;;;4812560;29;20038;-78
2022/06/22 12:59:15;;;;;;;3.10;1.50;;;;;;;;;;4875849;29;20516;-77
2022/06/22 13:01:41;;;;;;;2.95;1.55;;;;;;;;;;4880545;29;20036;-77
2022/06/22 13:04:24;;;;;;;2.05;1.48;;;;;;;;;;4880601;29;20339;-77
2022/06/22 13:06:52;;;;;;;3.85;1.50;;;;;;;;;;4880677;29;20041;-77
2022/06/22 13:09:18;;;;;;;2.60;1.40;;;;;;;;;;4880929;29;20398;-78
2022/06/22 13:11:44;;;;;;;3.30;1.60;;;;;;;;;;4884303;29;20033;-78
2022/06/22 13:14:24;;;;;;;2.80;1.55;;;;;;;;;;4884561;29;20028;-77
2022/06/22 13:17:27;;;;;;;2.25;1.30;;;;;;;;;;4884303;29;20093;-78
2022/06/22 13:20:35;;;;;;;1.20;1.10;;;;;;;;;;4952602;28;20105;-77
2022/06/22 13:23:22;;;;;;;2.22;1.20;;;;;;;;;;4980246;28;20018;-77
2022/06/22 13:26:11;;;;;;;2.35;1.35;;;;;;;;;;4980129;28;20590;-78
2022/06/22 13:28:58;;;;;;;3.90;1.50;;;;;;;;;;4980278;28;20108;-78
2022/06/22 13:31:34;;;;;;;2.35;1.17;;;;;;;;;;4980477;28;20463;-77
2022/06/22 13:34:05;;;;;;;5.38;1.35;;;;;;;;;;4980293;28;20023;-78
2022/06/22 13:36:46;;;;;;;3.42;1.65;;;;;;;;;;4997439;28;20033;-78
2022/06/22 13:39:49;;;;;;;3.03;1.40;;;;;;;;;;4996126;28;20022;-78
2022/06/22 13:42:35;;;;;;;1.98;1.13;;;;;;;;;;4979940;28;20140;-78
2022/06/22 13:45:23;;;;;;;1.42;1.10;;;;;;;;;;4997574;28;20030;-78
2022/06/22 13:48:13;;;;;;;1.42;1.10;;;;;;;;;;4979736;28;20022;-78
2022/06/22 13:51:19;;;;;;;3.22;1.27;;;;;;;;;;4997520;28;20034;-78
2022/06/22 13:54:15;;;;;;;2.15;1.10;;;;;;;;;;4982387;28;20022;-79
2022/06/22 13:57:01;;;;;;;1.35;1.20;;;;;;;;;;4979828;28;20057;-78
2022/06/22 13:59:45;;;;;;;1.65;1.08;;;;;;;;;;4979916;28;20083;-79
2022/06/22 14:02:26;;;;;;;3.47;1.27;;;;;;;;;;4979445;28;20034;-77
2022/06/22 14:04:58;;;;;;;1.27;1.10;;;;;;;;;;4995813;28;20026;-79
2022/06/22 14:07:32;;;;;;;1.60;1.20;;;;;;;;;;4979637;28;20113;-76
2022/06/22 14:10:17;;;;;;;3.00;1.25;;;;;;;;;;4979677;28;20513;-76
2022/06/22 14:12:51;;;;;;;3.45;1.25;;;;;;;;;;4979357;28;20026;-77
2022/06/22 14:15:42;;;;;;;1.67;1.10;;;;;;;;;;4979284;28;20026;-78
2022/06/22 14:18:38;;;;;;;3.55;1.25;;;;;;;;;;4979179;28;20137;-78
2022/06/22 14:21:11;;;;;;;1.42;1.10;;;;;;;;;;4995691;28;20509;-78
2022/06/22 14:23:38;;;;;;;1.58;1.27;;;;;;;;;;4996673;28;20022;-78
2022/06/22 14:26:41;;;;;;;2.03;1.23;;;;;;;;;;4978906;28;20062;-78
2022/06/22 14:29:15;;;;;;;1.20;1.10;;;;;;;;;;4979314;28;20105;-77
2022/06/22 14:31:59;;;;;;;3.70;1.10;;;;;;;;;;4996529;28;20105;-78
2022/06/22 14:34:49;;;;;;;1.52;1.10;;;;;;;;;;4979266;28;20033;-77
2022/06/22 14:37:20;;;;;;;1.60;1.05;;;;;;;;;;4978957;28;20030;-77
2022/06/22 14:39:51;;;;;;;1.73;1.08;;;;;;;;;;4995194;28;20037;-78
2022/06/22 14:42:29;;;;;;;1.63;0.90;;;;;;;;;;4995025;28;20483;-78
2022/06/22 14:45:04;;;;;;;3.63;1.05;;;;;;;;;;4995384;28;20121;-77
2022/06/22 14:47:36;;;;;;;4.20;1.20;;;;;;;;;;4978788;28;20030;-77
2022/06/22 14:50:17;;;;;;;1.60;1.08;;;;;;;;;;4996068;28;20105;-77
2022/06/22 14:52:49;;;;;;;3.55;1.33;;;;;;;;;;4996347;28;20030;-77
2022/06/22 14:55:25;;;;;;;4.13;1.20;;;;;;;;;;4996246;28;20022;-77
2022/06/22 14:58:18;;;;;;;2.10;1.50;;;;;;;;;;4978703;28;20474;-77
2022/06/22 15:00:43;;;;;;;3.22;1.35;;;;;;;;;;4978478;28;20026;-78
2022/06/22 15:03:36;;;;;;;4.28;1.15;;;;;;;;;;4996082;28;20093;-78
2022/06/22 15:06:32;;;;;;;1.90;1.13;;;;;;;;;;4978310;28;20033;-78
2022/06/22 15:09:16;;;;;;;2.25;1.10;;;;;;;;;;4978729;28;20117;-78
2022/06/22 15:14:57;;;;;;;2.40;1.40;;;;;;;;;;4964995;28;20040;-77
2022/06/22 15:17:43;;;;;;;4.63;1.33;;;;;;;;;;4978188;28;20037;-77
2022/06/22 15:20:22;;;;;;;1.20;1.00;;;;;;;;;;4994405;28;20398;-78
2022/06/22 15:23:19;;;;;;;1.15;1.00;;;;;;;;;;4978113;28;20030;-78
2022/06/22 15:26:08;;;;;;;2.97;1.20;;;;;;;;;;4951331;28;20042;-78
2022/06/22 15:28:53;;;;;;;2.05;1.10;;;;;;;;;;4978209;28;20418;-78
2022/06/22 15:31:35;;;;;;;2.53;1.30;;;;;;;;;;4978642;28;20489;-78
2022/06/22 15:34:24;;;;;;;1.23;1.00;;;;;;;;;;4995167;28;20037;-78
2022/06/22 15:37:16;;;;;;;1.65;1.10;;;;;;;;;;4947758;28;20030;-77
2022/06/22 15:40:22;;;;;;;0.80;0.80;;;;;;;;;;4950753;28;20393;-78
2022/06/22 15:42:50;;;;;;;1.40;1.00;;;;;;;;;;4977711;28;20088;-77
2022/06/22 15:45:15;;;;;;;1.75;1.10;;;;;;;;;;4977659;28;20026;-77
2022/06/22 15:47:49;;;;;;;1.88;1.10;;;;;;;;;;4995039;28;20037;-77
2022/06/22 15:50:14;;;;;;;4.00;1.50;;;;;;;;;;4977626;28;20025;-77
2022/06/22 15:52:52;;;;;;;1.10;1.00;;;;;;;;;;4995202;28;20387;-78
2022/06/22 15:55:40;;;;;;;2.17;1.10;;;;;;;;;;4977562;28;20359;-78
2022/06/22 15:58:54;;;;;;;1.60;1.17;;;;;;;;;;4977460;28;20390;-79
2022/06/22 16:01:42;;;;;;;3.15;1.10;;;;;;;;;;4972685;28;20030;-78
2022/06/22 16:04:20;;;;;;;1.45;1.00;;;;;;;;;;4948109;28;20065;-78
2022/06/22 16:06:55;;;;;;;1.20;1.10;;;;;;;;;;4994707;28;20031;-78
2022/06/22 16:09:32;;;;;;;1.25;1.00;;;;;;;;;;4994899;28;20035;-78
2022/06/22 16:15:12;;;;;;;1.33;1.05;;;;;;;;;;4980206;28;20089;-79
2022/06/22 16:17:59;;;;;;;1.65;1.08;;;;;;;;;;4994667;28;20050;-78
2022/06/22 16:21:05;;;;;;;3.80;1.27;;;;;;;;;;4994509;28;20033;-78